sensor_id;sensor_type;location;lat;lon;timestamp;pressure;altitude;pressure_sealevel;temperature;humidity
79577;BME280;69045;48.136;11.386;2024-01-30T00:00:55;96665.38;;;5.06;55.94
79577;BME280;69045;48.136;11.386;2024-01-30T00:03:23;96660.03;;;5.07;56.06
79577;BME280;69045;48.136;11.386;2024-01-30T00:05:52;96661.69;;;5.08;55.88
79577;BME280;69045;48.136;11.386;2024-01-30T00:08:24;96661.53;;;5.10;56.42
79577;BME280;69045;48.136;11.386;2024-01-30T00:10:52;96665.22;;;5.07;56.70
79577;BME280;69045;48.136;11.386;2024-01-30T00:13:20;96664.41;;;5.07;56.32
79577;BME280;69045;48.136;11.386;2024-01-30T00:15:48;96659.53;;;5.04;56.25
79577;BME280;69045;48.136;11.386;2024-01-30T00:18:16;96666.13;;;4.98;56.35
79577;BME280;69045;48.136;11.386;2024-01-30T00:20:45;96665.91;;;4.91;56.39
79577;BME280;69045;48.136;11.386;2024-01-30T00:23:14;96665.66;;;4.85;55.91
79577;BME280;69045;48.136;11.386;2024-01-30T00:25:42;96667.44;;;4.84;56.36
79577;BME280;69045;48.136;11.386;2024-01-30T00:28:11;96665.00;;;4.83;56.55
79577;BME280;69045;48.136;11.386;2024-01-30T00:30:39;96668.69;;;4.80;56.35
79577;BME280;69045;48.136;11.386;2024-01-30T00:33:08;96672.56;;;4.76;56.67
79577;BME280;69045;48.136;11.386;2024-01-30T00:35:37;96672.56;;;4.76;56.88
79577;BME280;69045;48.136;11.386;2024-01-30T00:38:05;96675.75;;;4.70;56.65
79577;BME280;69045;48.136;11.386;2024-01-30T00:40:35;96670.81;;;4.67;56.65
79577;BME280;69045;48.136;11.386;2024-01-30T00:43:03;96675.66;;;4.62;56.65
79577;BME280;69045;48.136;11.386;2024-01-30T00:45:32;96682.50;;;4.53;56.61
79577;BME280;69045;48.136;11.386;2024-01-30T00:48:00;96675.38;;;4.37;57.25
79577;BME280;69045;48.136;11.386;2024-01-30T00:50:28;96677.88;;;4.29;57.66
79577;BME280;69045;48.136;11.386;2024-01-30T00:52:56;96686.03;;;4.34;57.81
79577;BME280;69045;48.136;11.386;2024-01-30T00:55:24;96673.88;;;4.35;57.64
79577;BME280;69045;48.136;11.386;2024-01-30T00:57:53;96679.75;;;4.37;57.58
79577;BME280;69045;48.136;11.386;2024-01-30T01:00:21;96682.88;;;4.41;57.68
79577;BME280;69045;48.136;11.386;2024-01-30T01:02:55;96670.28;;;4.46;57.27
79577;BME280;69045;48.136;11.386;2024-01-30T01:05:23;96668.66;;;4.45;57.27
79577;BME280;69045;48.136;11.386;2024-01-30T01:07:51;96680.78;;;4.44;56.93
79577;BME280;69045;48.136;11.386;2024-01-30T01:10:19;96675.59;;;4.44;57.40
79577;BME280;69045;48.136;11.386;2024-01-30T01:12:48;96677.69;;;4.41;57.71
79577;BME280;69045;48.136;11.386;2024-01-30T01:15:17;96674.13;;;4.42;57.63
79577;BME280;69045;48.136;11.386;2024-01-30T01:17:45;96667.16;;;4.42;57.37
79577;BME280;69045;48.136;11.386;2024-01-30T01:20:14;96673.59;;;4.38;57.46
79577;BME280;69045;48.136;11.386;2024-01-30T01:22:42;96669.53;;;4.35;57.41
79577;BME280;69045;48.136;11.386;2024-01-30T01:25:09;96668.56;;;4.36;57.37
79577;BME280;69045;48.136;11.386;2024-01-30T01:27:37;96670.19;;;4.37;57.33
79577;BME280;69045;48.136;11.386;2024-01-30T01:30:09;96669.75;;;4.42;57.28
79577;BME280;69045;48.136;11.386;2024-01-30T01:32:39;96667.00;;;4.44;57.40
79577;BME280;69045;48.136;11.386;2024-01-30T01:35:15;96667.97;;;4.43;57.30
79577;BME280;69045;48.136;11.386;2024-01-30T01:37:43;96670.19;;;4.37;57.59
79577;BME280;69045;48.136;11.386;2024-01-30T01:40:11;96663.88;;;4.40;57.91
79577;BME280;69045;48.136;11.386;2024-01-30T01:42:39;96669.06;;;4.40;57.61
79577;BME280;69045;48.136;11.386;2024-01-30T01:45:08;96672.19;;;4.44;57.54
79577;BME280;69045;48.136;11.386;2024-01-30T01:47:36;96665.22;;;4.44;57.50
79577;BME280;69045;48.136;11.386;2024-01-30T01:50:06;96667.16;;;4.42;57.63
79577;BME280;69045;48.136;11.386;2024-01-30T01:52:34;96669.06;;;4.40;58.13
79577;BME280;69045;48.136;11.386;2024-01-30T01:55:02;96669.59;;;4.44;58.10
79577;BME280;69045;48.136;11.386;2024-01-30T01:57:31;96669.31;;;4.47;58.03
79577;BME280;69045;48.136;11.386;2024-01-30T01:59:59;96664.34;;;4.53;57.40
79577;BME280;69045;48.136;11.386;2024-01-30T02:02:35;96665.84;;;4.56;57.59
79577;BME280;69045;48.136;11.386;2024-01-30T02:05:06;96666.53;;;4.58;57.62
79577;BME280;69045;48.136;11.386;2024-01-30T02:07:34;96664.91;;;4.57;57.40
79577;BME280;69045;48.136;11.386;2024-01-30T02:10:02;96667.34;;;4.58;57.08
79577;BME280;69045;48.136;11.386;2024-01-30T02:12:31;96663.41;;;4.54;57.19
79577;BME280;69045;48.136;11.386;2024-01-30T02:14:59;96668.00;;;4.33;57.55
79577;BME280;69045;48.136;11.386;2024-01-30T02:17:27;96661.66;;;4.27;57.92
79577;BME280;69045;48.136;11.386;2024-01-30T02:19:55;96671.06;;;4.28;57.99
79577;BME280;69045;48.136;11.386;2024-01-30T02:22:24;96672.94;;;4.36;57.66
79577;BME280;69045;48.136;11.386;2024-01-30T02:24:53;96670.19;;;4.37;57.53
79577;BME280;69045;48.136;11.386;2024-01-30T02:27:21;96667.75;;;4.36;57.46
79577;BME280;69045;48.136;11.386;2024-01-30T02:29:48;96658.03;;;4.38;57.35
79577;BME280;69045;48.136;11.386;2024-01-30T02:32:16;96659.66;;;4.39;57.44
79577;BME280;69045;48.136;11.386;2024-01-30T02:34:44;96663.88;;;4.40;57.31
79577;BME280;69045;48.136;11.386;2024-01-30T02:37:12;96664.72;;;4.41;57.44
79577;BME280;69045;48.136;11.386;2024-01-30T02:39:41;96654.19;;;4.42;57.72
79577;BME280;69045;48.136;11.386;2024-01-30T02:42:09;96662.50;;;4.46;57.60
79577;BME280;69045;48.136;11.386;2024-01-30T02:44:37;96660.44;;;4.49;57.50
79577;BME280;69045;48.136;11.386;2024-01-30T02:47:05;96652.34;;;4.52;57.53
79577;BME280;69045;48.136;11.386;2024-01-30T02:49:33;96657.38;;;4.54;57.35
79577;BME280;69045;48.136;11.386;2024-01-30T02:52:03;96651.09;;;4.56;57.01
79577;BME280;69045;48.136;11.386;2024-01-30T02:54:31;96655.47;;;4.56;57.02
79577;BME280;69045;48.136;11.386;2024-01-30T02:57:00;96659.41;;;4.60;57.14
79577;BME280;69045;48.136;11.386;2024-01-30T02:59:28;96651.34;;;4.63;57.33
79577;BME280;69045;48.136;11.386;2024-01-30T03:01:56;96650.22;;;4.65;56.90
79577;BME280;69045;48.136;11.386;2024-01-30T03:04:24;96642.44;;;4.65;56.71
79577;BME280;69045;48.136;11.386;2024-01-30T03:06:52;96638.06;;;4.66;56.79
79577;BME280;69045;48.136;11.386;2024-01-30T03:09:20;96644.22;;;4.65;56.82
79577;BME280;69045;48.136;11.386;2024-01-30T03:11:48;96637.94;;;4.68;57.41
79577;BME280;69045;48.136;11.386;2024-01-30T03:14:17;96631.63;;;4.70;56.53
79577;BME280;69045;48.136;11.386;2024-01-30T03:16:45;96638.44;;;4.71;56.80
79577;BME280;69045;48.136;11.386;2024-01-30T03:19:13;96634.88;;;4.72;56.60
79577;BME280;69045;48.136;11.386;2024-01-30T03:21:41;96637.94;;;4.68;57.05
79577;BME280;69045;48.136;11.386;2024-01-30T03:24:09;96630.59;;;4.63;56.95
79577;BME280;69045;48.136;11.386;2024-01-30T03:26:37;96636.19;;;4.58;57.33
79577;BME280;69045;48.136;11.386;2024-01-30T03:29:05;96639.59;;;4.59;57.28
79577;BME280;69045;48.136;11.386;2024-01-30T03:31:34;96631.97;;;4.57;57.16
79577;BME280;69045;48.136;11.386;2024-01-30T03:34:03;96634.72;;;4.56;57.70
79577;BME280;69045;48.136;11.386;2024-01-30T03:36:31;96642.19;;;4.59;57.43
79577;BME280;69045;48.136;11.386;2024-01-30T03:38:59;96638.66;;;4.60;57.28
79577;BME280;69045;48.136;11.386;2024-01-30T03:41:27;96629.91;;;4.61;57.40
79577;BME280;69045;48.136;11.386;2024-01-30T03:43:55;96635.22;;;4.59;57.11
79577;BME280;69045;48.136;11.386;2024-01-30T03:46:23;96633.44;;;4.60;56.96
79577;BME280;69045;48.136;11.386;2024-01-30T03:48:53;96628.81;;;4.63;57.09
79577;BME280;69045;48.136;11.386;2024-01-30T03:51:21;96636.19;;;4.58;57.33
79577;BME280;69045;48.136;11.386;2024-01-30T03:53:49;96634.19;;;4.52;57.73
79577;BME280;69045;48.136;11.386;2024-01-30T03:56:17;96636.13;;;4.50;57.56
79577;BME280;69045;48.136;11.386;2024-01-30T03:58:45;96637.31;;;4.56;57.61
79577;BME280;69045;48.136;11.386;2024-01-30T04:01:13;96640.72;;;4.56;57.06
79577;BME280;69045;48.136;11.386;2024-01-30T04:03:41;96644.94;;;4.57;57.67
79577;BME280;69045;48.136;11.386;2024-01-30T04:06:12;96640.56;;;4.58;57.74
79577;BME280;69045;48.136;11.386;2024-01-30T04:08:40;96637.97;;;4.58;57.02
79577;BME280;69045;48.136;11.386;2024-01-30T04:11:08;96638.28;;;4.55;57.21
79577;BME280;69045;48.136;11.386;2024-01-30T04:13:36;96630.78;;;4.52;57.30
79577;BME280;69045;48.136;11.386;2024-01-30T04:16:05;96636.69;;;4.44;57.47
79577;BME280;69045;48.136;11.386;2024-01-30T04:18:33;96640.69;;;4.38;57.95
79577;BME280;69045;48.136;11.386;2024-01-30T04:21:01;96626.09;;;4.37;57.94
79577;BME280;69045;48.136;11.386;2024-01-30T04:23:30;96635.22;;;4.42;58.34
79577;BME280;69045;48.136;11.386;2024-01-30T04:25:58;96631.50;;;4.44;57.97
79577;BME280;69045;48.136;11.386;2024-01-30T04:28:26;96631.34;;;4.46;58.51
79577;BME280;69045;48.136;11.386;2024-01-30T04:30:54;96631.81;;;4.41;58.11
79577;BME280;69045;48.136;11.386;2024-01-30T04:33:22;96633.44;;;4.42;58.58
79577;BME280;69045;48.136;11.386;2024-01-30T04:35:50;96630.69;;;4.44;58.27
79577;BME280;69045;48.136;11.386;2024-01-30T04:38:18;96630.41;;;4.47;58.36
79577;BME280;69045;48.136;11.386;2024-01-30T04:40:47;96632.72;;;4.50;58.25
79577;BME280;69045;48.136;11.386;2024-01-30T04:43:15;96627.22;;;4.53;57.85
79577;BME280;69045;48.136;11.386;2024-01-30T04:45:43;96635.38;;;4.58;57.94
79577;BME280;69045;48.136;11.386;2024-01-30T04:48:11;96638.66;;;4.60;58.00
79577;BME280;69045;48.136;11.386;2024-01-30T04:50:39;96626.34;;;4.62;58.03
79577;BME280;69045;48.136;11.386;2024-01-30T04:53:07;96639.59;;;4.59;57.57
79577;BME280;69045;48.136;11.386;2024-01-30T04:55:35;96634.03;;;4.54;58.13
79577;BME280;69045;48.136;11.386;2024-01-30T04:58:05;96633.91;;;4.55;57.91
79577;BME280;69045;48.136;11.386;2024-01-30T05:00:33;96637.59;;;4.53;57.93
79577;BME280;69045;48.136;11.386;2024-01-30T05:03:01;96637.09;;;4.49;58.21
79577;BME280;69045;48.136;11.386;2024-01-30T05:05:29;96636.13;;;4.50;58.03
79577;BME280;69045;48.136;11.386;2024-01-30T05:07:57;96641.69;;;4.55;58.16
79577;BME280;69045;48.136;11.386;2024-01-30T05:10:24;96645.19;;;4.64;57.72
79577;BME280;69045;48.136;11.386;2024-01-30T05:12:52;96632.88;;;4.66;57.97
79577;BME280;69045;48.136;11.386;2024-01-30T05:15:22;96644.38;;;4.63;57.96
79577;BME280;69045;48.136;11.386;2024-01-30T05:17:50;96637.25;;;4.65;57.85
79577;BME280;69045;48.136;11.386;2024-01-30T05:20:19;96636.66;;;4.72;57.48
79577;BME280;69045;48.136;11.386;2024-01-30T05:22:47;96644.59;;;4.70;57.76
79577;BME280;69045;48.136;11.386;2024-01-30T05:25:15;96634.22;;;4.70;57.77
79577;BME280;69045;48.136;11.386;2024-01-30T05:27:43;96642.09;;;4.78;57.27
79577;BME280;69045;48.136;11.386;2024-01-30T05:30:12;96634.94;;;4.80;57.04
79577;BME280;69045;48.136;11.386;2024-01-30T05:32:41;96639.72;;;4.85;56.51
79577;BME280;69045;48.136;11.386;2024-01-30T05:35:09;96635.34;;;4.85;56.96
79577;BME280;69045;48.136;11.386;2024-01-30T05:37:37;96637.28;;;4.83;56.63
79577;BME280;69045;48.136;11.386;2024-01-30T05:40:06;96637.94;;;4.85;56.77
79577;BME280;69045;48.136;11.386;2024-01-30T05:42:34;96644.47;;;4.89;57.10
79577;BME280;69045;48.136;11.386;2024-01-30T05:45:03;96642.97;;;4.87;56.72
79577;BME280;69045;48.136;11.386;2024-01-30T05:47:32;96648.63;;;4.82;56.57
79577;BME280;69045;48.136;11.386;2024-01-30T05:50:01;96651.00;;;4.76;56.43
79577;BME280;69045;48.136;11.386;2024-01-30T05:52:29;96648.25;;;4.77;56.65
79577;BME280;69045;48.136;11.386;2024-01-30T05:54:57;96649.47;;;4.73;56.79
79577;BME280;69045;48.136;11.386;2024-01-30T05:57:25;96653.34;;;4.69;56.60
79577;BME280;69045;48.136;11.386;2024-01-30T05:59:53;96658.81;;;4.66;56.27
79577;BME280;69045;48.136;11.386;2024-01-30T06:02:21;96654.91;;;4.62;56.68
79577;BME280;69045;48.136;11.386;2024-01-30T06:04:49;96657.50;;;4.62;56.53
79577;BME280;69045;48.136;11.386;2024-01-30T06:07:19;96652.16;;;4.63;56.39
79577;BME280;69045;48.136;11.386;2024-01-30T06:09:47;96646.00;;;4.64;56.37
79577;BME280;69045;48.136;11.386;2024-01-30T06:12:15;96646.81;;;4.65;56.28
79577;BME280;69045;48.136;11.386;2024-01-30T06:14:43;96649.25;;;4.66;56.81
79577;BME280;69045;48.136;11.386;2024-01-30T06:17:13;96653.63;;;4.66;56.58
79577;BME280;69045;48.136;11.386;2024-01-30T06:19:41;96658.16;;;4.64;56.67
79577;BME280;69045;48.136;11.386;2024-01-30T06:22:09;96660.75;;;4.64;57.09
79577;BME280;69045;48.136;11.386;2024-01-30T06:24:39;96662.69;;;4.62;56.84
79577;BME280;69045;48.136;11.386;2024-01-30T06:27:07;96660.22;;;4.60;56.80
79577;BME280;69045;48.136;11.386;2024-01-30T06:29:36;96658.47;;;4.61;56.82
79577;BME280;69045;48.136;11.386;2024-01-30T06:32:05;96664.31;;;4.63;56.87
79577;BME280;69045;48.136;11.386;2024-01-30T06:34:33;96666.47;;;4.68;56.70
79577;BME280;69045;48.136;11.386;2024-01-30T06:37:01;96676.13;;;4.75;56.31
79577;BME280;69045;48.136;11.386;2024-01-30T06:39:29;96672.72;;;4.75;56.22
79577;BME280;69045;48.136;11.386;2024-01-30T06:41:58;96670.63;;;4.78;56.27
79577;BME280;69045;48.136;11.386;2024-01-30T06:44:26;96665.06;;;4.73;56.18
79577;BME280;69045;48.136;11.386;2024-01-30T06:46:59;96675.44;;;4.73;56.78
79577;BME280;69045;48.136;11.386;2024-01-30T06:49:27;96677.38;;;4.71;56.53
79577;BME280;69045;48.136;11.386;2024-01-30T06:51:55;96680.78;;;4.72;56.17
79577;BME280;69045;48.136;11.386;2024-01-30T06:54:23;96680.63;;;4.73;56.06
79577;BME280;69045;48.136;11.386;2024-01-30T06:56:51;96679.53;;;4.76;56.78
79577;BME280;69045;48.136;11.386;2024-01-30T06:59:21;96679.88;;;4.81;56.82
79577;BME280;69045;48.136;11.386;2024-01-30T07:01:48;96683.34;;;4.81;56.15
79577;BME280;69045;48.136;11.386;2024-01-30T07:04:16;96676.34;;;4.82;56.10
79577;BME280;69045;48.136;11.386;2024-01-30T07:06:45;96678.88;;;4.91;56.89
79577;BME280;69045;48.136;11.386;2024-01-30T07:09:13;96674.59;;;5.18;56.90
79577;BME280;69045;48.136;11.386;2024-01-30T07:11:41;96674.88;;;5.77;54.73
79577;BME280;69045;48.136;11.386;2024-01-30T07:14:09;96678.75;;;6.24;53.92
79577;BME280;69045;48.136;11.386;2024-01-30T07:16:38;96670.97;;;6.83;51.96
79577;BME280;69045;48.136;11.386;2024-01-30T07:19:06;96679.84;;;7.55;50.37
79577;BME280;69045;48.136;11.386;2024-01-30T07:21:36;96672.22;;;8.42;48.25
79577;BME280;69045;48.136;11.386;2024-01-30T07:24:05;96665.38;;;9.26;46.65
79577;BME280;69045;48.136;11.386;2024-01-30T07:26:33;96675.44;;;10.12;44.09
79577;BME280;69045;48.136;11.386;2024-01-30T07:29:02;96668.09;;;10.82;42.13
79577;BME280;69045;48.136;11.386;2024-01-30T07:31:30;96666.59;;;11.52;41.13
79577;BME280;69045;48.136;11.386;2024-01-30T07:34:01;96674.00;;;12.25;40.60
79577;BME280;69045;48.136;11.386;2024-01-30T07:36:30;96673.53;;;12.91;38.49
79577;BME280;69045;48.136;11.386;2024-01-30T07:38:58;96669.81;;;13.33;37.47
79577;BME280;69045;48.136;11.386;2024-01-30T07:41:26;96680.81;;;13.97;36.29
79577;BME280;69045;48.136;11.386;2024-01-30T07:43:54;96681.56;;;14.37;35.50
79577;BME280;69045;48.136;11.386;2024-01-30T07:46:22;96678.63;;;14.78;34.87
79577;BME280;69045;48.136;11.386;2024-01-30T07:48:50;96679.59;;;15.28;33.66
79577;BME280;69045;48.136;11.386;2024-01-30T07:51:22;96685.09;;;15.90;32.92
79577;BME280;69045;48.136;11.386;2024-01-30T07:53:50;96689.50;;;16.46;31.98
79577;BME280;69045;48.136;11.386;2024-01-30T07:56:18;96685.91;;;16.96;31.55
79577;BME280;69045;48.136;11.386;2024-01-30T07:58:46;96692.81;;;17.57;30.47
79577;BME280;69045;48.136;11.386;2024-01-30T08:01:15;96698.03;;;18.17;29.64
79577;BME280;69045;48.136;11.386;2024-01-30T08:03:43;96693.63;;;18.81;28.89
79577;BME280;69045;48.136;11.386;2024-01-30T08:06:11;96703.97;;;18.94;28.93
79577;BME280;69045;48.136;11.386;2024-01-30T08:08:41;96702.63;;;18.92;29.12
79577;BME280;69045;48.136;11.386;2024-01-30T08:11:09;96701.13;;;19.24;29.09
79577;BME280;69045;48.136;11.386;2024-01-30T08:13:37;96701.78;;;20.05;30.43
79577;BME280;69045;48.136;11.386;2024-01-30T08:16:05;96699.69;;;21.02;29.38
79577;BME280;69045;48.136;11.386;2024-01-30T08:18:35;96704.84;;;21.57;27.97
79577;BME280;69045;48.136;11.386;2024-01-30T08:21:04;96701.63;;;22.09;26.97
79577;BME280;69045;48.136;11.386;2024-01-30T08:23:32;96703.78;;;22.54;26.22
79577;BME280;69045;48.136;11.386;2024-01-30T08:26:02;96704.16;;;23.26;24.53
79577;BME280;69045;48.136;11.386;2024-01-30T08:28:30;96696.75;;;23.53;23.96
79577;BME280;69045;48.136;11.386;2024-01-30T08:30:58;96699.09;;;23.34;24.17
79577;BME280;69045;48.136;11.386;2024-01-30T08:33:26;96704.81;;;23.63;24.17
79577;BME280;69045;48.136;11.386;2024-01-30T08:35:53;96692.53;;;23.83;23.82
79577;BME280;69045;48.136;11.386;2024-01-30T08:38:22;96688.50;;;23.75;23.51
79577;BME280;69045;48.136;11.386;2024-01-30T08:40:49;96693.06;;;23.75;23.77
79577;BME280;69045;48.136;11.386;2024-01-30T08:43:19;96696.25;;;23.61;24.17
79577;BME280;69045;48.136;11.386;2024-01-30T08:45:47;96696.53;;;23.95;23.16
79577;BME280;69045;48.136;11.386;2024-01-30T08:48:15;96700.84;;;24.37;23.54
79577;BME280;69045;48.136;11.386;2024-01-30T08:50:44;96699.88;;;24.98;22.48
79577;BME280;69045;48.136;11.386;2024-01-30T08:53:12;96710.13;;;25.50;22.10
79577;BME280;69045;48.136;11.386;2024-01-30T08:55:40;96699.78;;;25.78;21.91
79577;BME280;69045;48.136;11.386;2024-01-30T08:58:08;96709.72;;;26.51;20.80
79577;BME280;69045;48.136;11.386;2024-01-30T09:00:38;96708.25;;;26.63;20.74
79577;BME280;69045;48.136;11.386;2024-01-30T09:03:06;96707.28;;;26.78;20.53
79577;BME280;69045;48.136;11.386;2024-01-30T09:05:34;96714.19;;;26.84;20.94
79577;BME280;69045;48.136;11.386;2024-01-30T09:08:02;96712.94;;;27.01;21.32
79577;BME280;69045;48.136;11.386;2024-01-30T09:10:30;96721.28;;;27.23;20.88
79577;BME280;69045;48.136;11.386;2024-01-30T09:12:58;96722.97;;;27.19;21.14
79577;BME280;69045;48.136;11.386;2024-01-30T09:15:26;96720.63;;;27.55;21.31
79577;BME280;69045;48.136;11.386;2024-01-30T09:17:55;96725.09;;;27.84;20.69
79577;BME280;69045;48.136;11.386;2024-01-30T09:20:23;96725.63;;;27.62;21.02
79577;BME280;69045;48.136;11.386;2024-01-30T09:22:51;96720.91;;;27.54;20.99
79577;BME280;69045;48.136;11.386;2024-01-30T09:25:19;96729.47;;;27.98;20.57
79577;BME280;69045;48.136;11.386;2024-01-30T09:27:47;96726.59;;;28.09;20.41
79577;BME280;69045;48.136;11.386;2024-01-30T09:30:16;96736.56;;;27.52;21.49
79577;BME280;69045;48.136;11.386;2024-01-30T09:32:44;96739.66;;;28.01;20.69
79577;BME280;69045;48.136;11.386;2024-01-30T09:35:13;96732.78;;;28.09;21.06
79577;BME280;69045;48.136;11.386;2024-01-30T09:37:41;96737.97;;;27.87;21.15
79577;BME280;69045;48.136;11.386;2024-01-30T09:40:09;96732.03;;;28.22;20.24
79577;BME280;69045;48.136;11.386;2024-01-30T09:42:38;96731.84;;;28.00;20.49
79577;BME280;69045;48.136;11.386;2024-01-30T09:45:07;96731.94;;;27.95;20.57
79577;BME280;69045;48.136;11.386;2024-01-30T09:47:40;96726.47;;;28.00;20.48
79577;BME280;69045;48.136;11.386;2024-01-30T09:50:10;96734.13;;;27.74;20.88
79577;BME280;69045;48.136;11.386;2024-01-30T09:52:40;96725.44;;;27.58;20.68
79577;BME280;69045;48.136;11.386;2024-01-30T09:55:08;96722.19;;;28.64;19.15
79577;BME280;69045;48.136;11.386;2024-01-30T09:57:37;96722.47;;;28.63;19.10
79577;BME280;69045;48.136;11.386;2024-01-30T10:00:06;96726.03;;;28.44;19.01
79577;BME280;69045;48.136;11.386;2024-01-30T10:02:39;96729.41;;;28.17;19.98
79577;BME280;69045;48.136;11.386;2024-01-30T10:05:08;96724.63;;;28.14;19.56
79577;BME280;69045;48.136;11.386;2024-01-30T10:07:36;96726.03;;;28.44;18.75
79577;BME280;69045;48.136;11.386;2024-01-30T10:10:07;96732.63;;;28.98;19.20
79577;BME280;69045;48.136;11.386;2024-01-30T10:12:35;96726.53;;;29.34;19.33
79577;BME280;69045;48.136;11.386;2024-01-30T10:15:06;96724.94;;;28.92;19.58
79577;BME280;69045;48.136;11.386;2024-01-30T10:17:37;96723.84;;;29.06;19.21
79577;BME280;69045;48.136;11.386;2024-01-30T10:20:06;96723.44;;;29.41;18.60
79577;BME280;69045;48.136;11.386;2024-01-30T10:22:35;96720.59;;;28.91;19.11
79577;BME280;69045;48.136;11.386;2024-01-30T10:25:04;96721.03;;;29.25;18.77
79577;BME280;69045;48.136;11.386;2024-01-30T10:27:34;96714.91;;;30.42;17.87
79577;BME280;69045;48.136;11.386;2024-01-30T10:30:02;96716.06;;;30.50;17.94
79577;BME280;69045;48.136;11.386;2024-01-30T10:32:31;96713.97;;;30.47;17.29
79577;BME280;69045;48.136;11.386;2024-01-30T10:34:59;96703.31;;;29.47;18.14
79577;BME280;69045;48.136;11.386;2024-01-30T10:37:29;96713.44;;;29.77;17.67
79577;BME280;69045;48.136;11.386;2024-01-30T10:40:02;96707.13;;;29.18;18.04
79577;BME280;69045;48.136;11.386;2024-01-30T10:42:36;96699.75;;;28.96;18.28
79577;BME280;69045;48.136;11.386;2024-01-30T10:45:07;96701.97;;;29.08;17.85
79577;BME280;69045;48.136;11.386;2024-01-30T10:47:36;96688.63;;;29.12;17.83
79577;BME280;69045;48.136;11.386;2024-01-30T10:50:05;96686.56;;;28.95;18.62
79577;BME280;69045;48.136;11.386;2024-01-30T10:52:36;96683.19;;;29.39;17.75
79577;BME280;69045;48.136;11.386;2024-01-30T10:55:04;96680.91;;;29.82;17.88
79577;BME280;69045;48.136;11.386;2024-01-30T10:57:36;96673.59;;;29.47;18.18
79577;BME280;69045;48.136;11.386;2024-01-30T11:00:07;96673.69;;;29.55;17.62
79577;BME280;69045;48.136;11.386;2024-01-30T11:02:39;96662.72;;;29.97;17.30
79577;BME280;69045;48.136;11.386;2024-01-30T11:05:08;96673.53;;;29.74;18.07
79577;BME280;69045;48.136;11.386;2024-01-30T11:07:39;96664.66;;;29.60;17.88
79577;BME280;69045;48.136;11.386;2024-01-30T11:10:08;96672.31;;;29.30;18.22
79577;BME280;69045;48.136;11.386;2024-01-30T11:12:41;96666.78;;;28.99;18.61
79577;BME280;69045;48.136;11.386;2024-01-30T11:15:13;96665.09;;;29.40;18.12
79577;BME280;69045;48.136;11.386;2024-01-30T11:17:43;96659.66;;;28.90;17.80
79577;BME280;69045;48.136;11.386;2024-01-30T11:20:12;96664.75;;;27.85;18.29
79577;BME280;69045;48.136;11.386;2024-01-30T11:22:42;96664.41;;;26.87;19.41
79577;BME280;69045;48.136;11.386;2024-01-30T11:25:13;96661.19;;;25.69;19.92
79577;BME280;69045;48.136;11.386;2024-01-30T11:27:43;96652.56;;;24.58;21.31
79577;BME280;69045;48.136;11.386;2024-01-30T11:30:21;96651.41;;;24.79;21.71
79577;BME280;69045;48.136;11.386;2024-01-30T11:33:04;96645.66;;;24.46;22.25
79577;BME280;69045;48.136;11.386;2024-01-30T11:35:35;96637.59;;;24.46;21.63
79577;BME280;69045;48.136;11.386;2024-01-30T11:38:05;96641.41;;;24.00;21.70
79577;BME280;69045;48.136;11.386;2024-01-30T11:40:34;96637.94;;;23.79;22.34
79577;BME280;69045;48.136;11.386;2024-01-30T11:43:06;96639.44;;;23.24;23.04
79577;BME280;69045;48.136;11.386;2024-01-30T11:45:36;96645.09;;;23.37;22.72
79577;BME280;69045;48.136;11.386;2024-01-30T11:48:05;96639.25;;;22.78;23.00
79577;BME280;69045;48.136;11.386;2024-01-30T11:50:34;96637.75;;;23.02;23.52
79577;BME280;69045;48.136;11.386;2024-01-30T11:53:04;96636.91;;;22.86;23.43
79577;BME280;69045;48.136;11.386;2024-01-30T11:55:33;96639.47;;;22.66;23.48
79577;BME280;69045;48.136;11.386;2024-01-30T11:58:04;96632.50;;;22.60;23.47
79577;BME280;69045;48.136;11.386;2024-01-30T12:00:33;96628.91;;;21.97;23.51
79577;BME280;69045;48.136;11.386;2024-01-30T12:03:03;96619.75;;;21.88;24.04
79577;BME280;69045;48.136;11.386;2024-01-30T12:05:33;96629.69;;;21.97;24.25
79577;BME280;69045;48.136;11.386;2024-01-30T12:08:01;96626.19;;;21.92;24.77
79577;BME280;69045;48.136;11.386;2024-01-30T12:10:29;96617.31;;;21.49;24.00
79577;BME280;69045;48.136;11.386;2024-01-30T12:12:58;96618.88;;;21.45;24.53
79577;BME280;69045;48.136;11.386;2024-01-30T12:15:28;96617.25;;;21.44;25.16
79577;BME280;69045;48.136;11.386;2024-01-30T12:18:04;96607.44;;;21.22;24.54
79577;BME280;69045;48.136;11.386;2024-01-30T12:20:32;96603.44;;;20.98;23.85
79577;BME280;69045;48.136;11.386;2024-01-30T12:23:00;96604.88;;;20.84;23.61
79577;BME280;69045;48.136;11.386;2024-01-30T12:25:28;96597.72;;;20.62;23.33
79577;BME280;69045;48.136;11.386;2024-01-30T12:27:57;96599.25;;;20.58;23.01
79577;BME280;69045;48.136;11.386;2024-01-30T12:30:25;96589.81;;;20.29;23.93
79577;BME280;69045;48.136;11.386;2024-01-30T12:32:54;96593.34;;;20.12;24.22
79577;BME280;69045;48.136;11.386;2024-01-30T12:35:23;96586.25;;;20.01;24.52
79577;BME280;69045;48.136;11.386;2024-01-30T12:37:52;96587.25;;;19.78;24.64
79577;BME280;69045;48.136;11.386;2024-01-30T12:40:20;96586.25;;;19.84;25.49
79577;BME280;69045;48.136;11.386;2024-01-30T12:42:48;96585.22;;;19.69;26.07
79577;BME280;69045;48.136;11.386;2024-01-30T12:45:17;96590.91;;;19.44;26.43
79577;BME280;69045;48.136;11.386;2024-01-30T12:47:47;96580.28;;;19.27;26.30
79577;BME280;69045;48.136;11.386;2024-01-30T12:50:17;96576.91;;;19.31;27.21
79577;BME280;69045;48.136;11.386;2024-01-30T12:52:46;96577.72;;;19.32;28.48
79577;BME280;69045;48.136;11.386;2024-01-30T12:55:16;96576.00;;;19.26;29.14
79577;BME280;69045;48.136;11.386;2024-01-30T12:57:45;96575.44;;;19.24;29.01
79577;BME280;69045;48.136;11.386;2024-01-30T13:00:13;96574.31;;;19.20;29.03
79577;BME280;69045;48.136;11.386;2024-01-30T13:02:44;96573.81;;;19.06;29.32